Time;durP1;ratioP1;P1;durP2;ratioP2;P2;SDS_P1;SDS_P2;PMS_P1;PMS_P2;Temp;Humidity;BMP_temperature;BMP_pressure;BME280_temperature;BME280_humidity;BME280_pressure;Samples;Min_cycle;Max_cycle;Signal;HPM_P1;HPM_P2
2022/07/25 00:00:02;;;;;;;4.55;1.22;;;;;;;16.04;60.92;96843.59;1632359;87;21017;-84
2022/07/25 00:02:28;;;;;;;2.30;1.50;;;;;;;16.08;61.39;96846.09;1633012;87;21037;-84
2022/07/25 00:04:54;;;;;;;1.60;1.37;;;;;;;16.07;61.38;96839.24;1602364;87;21005;-83
2022/07/25 00:07:20;;;;;;;2.20;1.27;;;;;;;16.05;61.45;96843.89;1587787;89;21033;-84
2022/07/25 00:09:46;;;;;;;2.80;1.45;;;;;;;16.02;61.54;96843.80;1629118;87;21415;-83
2022/07/25 00:12:11;;;;;;;2.42;1.27;;;;;;;16.01;61.40;96844.00;1623836;87;21381;-84
2022/07/25 00:14:37;;;;;;;2.87;1.35;;;;;;;15.99;61.20;96846.02;1602158;87;20986;-83
2022/07/25 00:17:03;;;;;;;1.57;1.10;;;;;;;15.95;61.36;96846.94;1593720;89;20991;-83
2022/07/25 00:19:29;;;;;;;1.62;1.30;;;;;;;15.95;61.66;96846.14;1627618;87;21459;-83
2022/07/25 00:21:54;;;;;;;1.67;1.22;;;;;;;15.93;62.15;96845.00;1595033;89;21099;-83
2022/07/25 00:24:21;;;;;;;1.87;1.55;;;;;;;15.91;62.12;96843.91;1631020;87;21062;-83
2022/07/25 00:26:46;;;;;;;2.35;1.65;;;;;;;15.88;62.08;96841.70;1589120;89;21410;-83
2022/07/25 00:29:12;;;;;;;2.05;1.32;;;;;;;15.87;62.45;96837.47;1619607;87;21063;-83
2022/07/25 00:31:39;;;;;;;2.52;1.27;;;;;;;15.89;62.33;96828.89;1588807;89;21116;-83
2022/07/25 00:34:06;;;;;;;2.37;1.77;;;;;;;15.89;62.49;96823.65;1596776;89;21010;-82
2022/07/25 00:36:32;;;;;;;2.40;1.30;;;;;;;15.91;62.79;96815.58;1595190;89;21054;-83
2022/07/25 00:38:57;;;;;;;3.17;1.45;;;;;;;15.93;63.15;96816.17;1625521;87;21005;-83
2022/07/25 00:41:23;;;;;;;2.20;1.40;;;;;;;15.93;62.79;96810.13;1621491;87;20998;-82
2022/07/25 00:43:49;;;;;;;2.15;1.40;;;;;;;15.94;62.94;96807.81;1586737;89;21020;-83
2022/07/25 00:46:17;;;;;;;1.92;1.35;;;;;;;15.91;62.58;96800.66;1604453;87;21142;-83
2022/07/25 00:48:43;;;;;;;1.45;1.25;;;;;;;15.91;62.52;96805.09;1632376;87;21073;-83
2022/07/25 00:51:09;;;;;;;3.08;1.30;;;;;;;15.90;62.44;96804.30;1604766;87;20999;-84
2022/07/25 00:53:38;;;;;;;2.22;1.27;;;;;;;15.88;62.61;96801.08;1623455;87;21017;-85
2022/07/25 00:56:05;;;;;;;2.15;1.25;;;;;;;15.86;62.03;96798.36;1624581;87;21026;-84
2022/07/25 00:58:31;;;;;;;1.35;1.02;;;;;;;15.83;62.07;96797.47;1633242;87;21074;-84
2022/07/25 01:00:57;;;;;;;3.25;1.52;;;;;;;15.78;61.82;96791.54;1634850;87;21067;-85
2022/07/25 01:03:23;;;;;;;1.57;1.37;;;;;;;15.76;61.57;96796.66;1633153;87;21026;-83
2022/07/25 01:05:49;;;;;;;2.12;1.40;;;;;;;15.74;62.07;96794.24;1633506;87;21371;-84
2022/07/25 01:08:17;;;;;;;2.20;1.20;;;;;;;15.72;61.88;96793.64;1635300;87;21058;-84
2022/07/25 01:10:44;;;;;;;1.52;1.12;;;;;;;15.70;61.73;96788.31;1633585;87;20998;-83
2022/07/25 01:13:10;;;;;;;2.62;1.60;;;;;;;15.69;62.05;96793.25;1634257;87;21083;-82
2022/07/25 01:15:36;;;;;;;2.30;1.00;;;;;;;15.68;62.19;96794.27;1611870;87;21034;-84
2022/07/25 01:18:02;;;;;;;1.98;1.40;;;;;;;15.69;62.02;96786.70;1642853;86;21428;-84
2022/07/25 01:20:28;;;;;;;2.22;1.15;;;;;;;15.71;62.19;96785.99;1644111;86;21042;-82
2022/07/25 01:22:54;;;;;;;2.45;1.25;;;;;;;15.72;62.14;96790.22;1605640;88;21067;-82
2022/07/25 01:25:20;;;;;;;1.62;1.22;;;;;;;15.74;62.42;96789.51;1605209;88;21029;-83
2022/07/25 01:27:45;;;;;;;2.05;1.45;;;;;;;15.75;62.91;96780.13;1586628;88;21028;-83
2022/07/25 01:30:14;;;;;;;1.42;1.10;;;;;;;15.74;62.24;96775.91;1588236;88;21079;-84
2022/07/25 01:32:41;;;;;;;1.80;1.22;;;;;;;15.74;62.26;96775.09;1585758;88;21043;-84
2022/07/25 01:35:07;;;;;;;1.25;0.90;;;;;;;15.73;62.28;96782.16;1635681;87;21010;-83
2022/07/25 01:37:33;;;;;;;1.47;1.22;;;;;;;15.71;62.31;96775.00;1633816;87;20975;-83
2022/07/25 01:39:59;;;;;;;1.70;1.20;;;;;;;15.69;62.59;96774.41;1633909;87;21067;-83
2022/07/25 01:42:25;;;;;;;2.17;1.60;;;;;;;15.68;62.51;96774.61;1643187;86;21492;-83
2022/07/25 01:44:50;;;;;;;1.77;1.30;;;;;;;15.65;62.38;96768.48;1642537;86;21047;-82
2022/07/25 01:47:16;;;;;;;2.65;1.30;;;;;;;15.63;62.26;96768.69;1641719;86;20959;-84
2022/07/25 01:49:43;;;;;;;1.47;1.17;;;;;;;15.61;62.38;96766.75;1642927;86;21366;-85
2022/07/25 01:52:09;;;;;;;2.02;1.10;;;;;;;15.59;62.66;96772.20;1633287;87;20986;-85
2022/07/25 01:54:35;;;;;;;1.75;1.10;;;;;;;15.57;62.33;96769.45;1633706;87;21062;-85
2022/07/25 01:57:00;;;;;;;2.33;1.50;;;;;;;15.56;62.10;96767.34;1613812;87;21547;-84
2022/07/25 01:59:26;;;;;;;2.12;1.42;;;;;;;15.58;61.86;96768.44;1603129;88;21103;-84
2022/07/25 02:01:52;;;;;;;1.95;1.35;;;;;;;15.57;61.87;96765.52;1602023;88;21034;-85
2022/07/25 02:04:18;;;;;;;1.87;1.25;;;;;;;15.55;61.86;96761.80;1601028;88;21090;-83
2022/07/25 02:06:44;;;;;;;1.32;1.12;;;;;;;15.55;61.98;96771.47;1602420;88;21004;-83
2022/07/25 02:09:09;;;;;;;2.08;1.35;;;;;;;15.54;61.93;96771.98;1608225;88;21413;-82
2022/07/25 02:11:35;;;;;;;2.65;1.65;;;;;;;15.53;62.04;96768.25;1601980;88;21066;-82
2022/07/25 02:14:01;;;;;;;2.47;1.45;;;;;;;15.51;62.12;96767.66;1606259;88;21019;-84
2022/07/25 02:16:27;;;;;;;1.95;1.15;;;;;;;15.47;62.54;96765.15;1600616;88;21478;-84
2022/07/25 02:18:53;;;;;;;1.65;1.15;;;;;;;15.44;62.80;96762.41;1602829;88;21008;-82
2022/07/25 02:21:19;;;;;;;2.22;1.90;;;;;;;15.41;62.97;96760.20;1602605;88;20998;-84
2022/07/25 02:23:45;;;;;;;2.05;1.20;;;;;;;15.38;63.00;96763.73;1602616;88;21035;-84
2022/07/25 02:26:11;;;;;;;1.90;1.27;;;;;;;15.35;63.15;96762.83;1603526;88;21065;-82
2022/07/25 02:28:37;;;;;;;2.80;1.75;;;;;;;15.33;62.92;96768.78;1603129;88;21378;-83
2022/07/25 02:31:04;;;;;;;2.40;1.40;;;;;;;15.31;63.29;96768.48;1588116;89;21110;-83
2022/07/25 02:33:29;;;;;;;3.00;1.60;;;;;;;15.31;63.00;96764.55;1602642;88;21137;-84
2022/07/25 02:35:55;;;;;;;2.27;1.45;;;;;;;15.33;63.14;96768.27;1602769;88;20987;-83
2022/07/25 02:38:21;;;;;;;2.02;1.40;;;;;;;15.34;63.36;96763.34;1600728;88;21075;-82
2022/07/25 02:40:50;;;;;;;4.20;1.82;;;;;;;15.35;63.49;96764.14;1606068;89;20971;-82
2022/07/25 02:43:16;;;;;;;2.92;1.42;;;;;;;15.36;63.45;96764.44;1599496;88;21016;-83
2022/07/25 02:45:42;;;;;;;2.10;1.22;;;;;;;15.36;63.52;96771.79;1601456;88;21433;-82
2022/07/25 02:48:08;;;;;;;1.98;1.77;;;;;;;15.35;63.87;96768.87;1606955;88;20987;-82
2022/07/25 02:50:34;;;;;;;1.90;1.60;;;;;;;15.34;63.94;96763.84;1603664;88;21000;-83
2022/07/25 02:53:00;;;;;;;2.33;1.60;;;;;;;15.33;64.03;96767.47;1579516;89;21497;-83
2022/07/25 02:55:25;;;;;;;1.50;1.30;;;;;;;15.29;64.08;96765.26;1551927;91;21052;-83
2022/07/25 02:57:51;;;;;;;2.47;1.30;;;;;;;15.28;64.01;96771.47;1630969;86;20990;-83
2022/07/25 03:00:17;;;;;;;2.22;1.20;;;;;;;15.25;63.84;96769.27;1637672;86;21357;-83
2022/07/25 03:02:43;;;;;;;1.98;1.20;;;;;;;15.22;63.81;96767.05;1639516;86;20986;-83
2022/07/25 03:05:13;;;;;;;1.67;1.00;;;;;;;15.21;63.74;96773.30;1641811;86;20999;-83
2022/07/25 03:07:40;;;;;;;1.75;1.47;;;;;;;15.22;63.47;96780.64;1638154;86;21070;-83
2022/07/25 03:10:07;;;;;;;2.37;1.12;;;;;;;15.22;63.39;96782.76;1638433;86;21070;-82
2022/07/25 03:12:32;;;;;;;2.92;1.70;;;;;;;15.23;63.14;96782.25;1635880;86;21050;-83
2022/07/25 03:14:59;;;;;;;1.60;1.37;;;;;;;15.24;63.50;96779.94;1641885;85;20999;-83
2022/07/25 03:17:25;;;;;;;3.15;1.40;;;;;;;15.25;63.86;96777.12;1635713;86;21011;-83
2022/07/25 03:19:50;;;;;;;1.40;1.30;;;;;;;15.24;63.42;96783.86;1640901;86;20967;-83
2022/07/25 03:22:16;;;;;;;1.82;1.47;;;;;;;15.23;63.41;96783.06;1634876;86;21431;-82
2022/07/25 03:24:42;;;;;;;2.80;1.30;;;;;;;15.23;63.18;96784.37;1639761;86;20982;-82
2022/07/25 03:27:08;;;;;;;1.30;0.90;;;;;;;15.20;62.89;96784.77;1641741;85;21142;-82
2022/07/25 03:29:34;;;;;;;1.70;1.20;;;;;;;15.19;62.61;96787.59;1641859;86;20989;-84
2022/07/25 03:32:00;;;;;;;1.87;1.15;;;;;;;15.18;62.56;96787.30;1640592;86;21312;-85
2022/07/25 03:34:26;;;;;;;1.60;1.17;;;;;;;15.16;62.19;96788.00;1640457;86;21014;-84
2022/07/25 03:36:51;;;;;;;1.92;1.10;;;;;;;15.14;62.23;96780.86;1641231;86;21427;-82
2022/07/25 03:39:17;;;;;;;1.87;1.30;;;;;;;15.13;62.13;96777.91;1637906;86;20995;-82
2022/07/25 03:41:44;;;;;;;2.20;1.47;;;;;;;15.10;62.25;96779.12;1640685;86;20982;-84
2022/07/25 03:44:10;;;;;;;2.50;1.10;;;;;;;15.09;62.33;96780.12;1636719;85;21078;-83
2022/07/25 03:46:36;;;;;;;2.10;1.35;;;;;;;15.08;62.57;96780.33;1642922;86;21110;-83
2022/07/25 03:49:01;;;;;;;1.65;1.15;;;;;;;15.07;62.60;96778.72;1636093;86;21406;-83
2022/07/25 03:51:27;;;;;;;2.05;1.05;;;;;;;15.07;62.92;96781.34;1638069;86;21073;-83
2022/07/25 03:54:02;;;;;;;2.35;1.30;;;;;;;15.06;63.45;96775.30;1637033;86;20984;-84
2022/07/25 03:56:31;;;;;;;2.47;1.20;;;;;;;15.07;63.38;96774.30;1638054;86;21066;-82
2022/07/25 03:58:58;;;;;;;1.65;1.40;;;;;;;15.11;63.83;96769.45;1635444;86;21532;-83
2022/07/25 04:01:24;;;;;;;1.57;1.30;;;;;;;15.14;64.00;96768.58;1635106;86;21025;-83
2022/07/25 04:03:51;;;;;;;1.62;1.40;;;;;;;15.15;64.11;96770.19;1643246;87;21385;-83
2022/07/25 04:06:17;;;;;;;3.70;1.35;;;;;;;15.17;64.14;96769.48;1643059;86;20979;-83
2022/07/25 04:08:43;;;;;;;3.20;1.60;;;;;;;15.17;64.20;96758.20;1642067;86;20978;-84
2022/07/25 04:11:08;;;;;;;3.92;1.30;;;;;;;15.16;64.32;96765.75;1642446;87;21123;-82
2022/07/25 04:13:34;;;;;;;2.58;1.47;;;;;;;15.14;64.59;96755.48;1636193;86;21050;-82
2022/07/25 04:16:00;;;;;;;2.45;1.37;;;;;;;15.16;64.89;96757.91;1634846;86;21309;-82
2022/07/25 04:18:26;;;;;;;2.00;1.60;;;;;;;15.15;65.55;96755.79;1635703;86;21445;-83
2022/07/25 04:20:51;;;;;;;3.10;1.37;;;;;;;15.14;65.92;96755.48;1640769;86;20959;-83
2022/07/25 04:23:17;;;;;;;1.52;1.22;;;;;;;15.15;65.76;96753.67;1640195;85;21042;-84
2022/07/25 04:25:43;;;;;;;1.45;1.22;;;;;;;15.17;65.99;96750.35;1642505;86;20991;-82
2022/07/25 04:28:08;;;;;;;2.52;1.47;;;;;;;15.19;66.11;96747.83;1642998;86;21009;-83
2022/07/25 04:30:34;;;;;;;1.92;1.30;;;;;;;15.21;66.35;96747.63;1641830;86;21010;-85
2022/07/25 04:33:00;;;;;;;2.10;1.47;;;;;;;15.22;66.56;96747.42;1642546;86;20943;-84
2022/07/25 04:35:25;;;;;;;2.15;1.32;;;;;;;15.23;66.79;96746.92;1608425;88;21010;-84
2022/07/25 04:37:51;;;;;;;1.47;1.37;;;;;;;15.21;66.89;96743.70;1603914;88;21008;-82
2022/07/25 04:40:17;;;;;;;2.25;1.20;;;;;;;15.21;66.99;96752.86;1605770;88;20992;-82
2022/07/25 04:42:42;;;;;;;2.55;1.42;;;;;;;15.20;67.15;96748.63;1582950;89;21023;-84
2022/07/25 04:45:09;;;;;;;3.45;1.40;;;;;;;15.22;67.16;96751.85;1581517;89;21015;-83
2022/07/25 04:47:35;;;;;;;3.00;1.40;;;;;;;15.25;67.03;96744.90;1635490;86;20940;-82
2022/07/25 04:50:01;;;;;;;1.65;1.37;;;;;;;15.28;67.16;96744.48;1633234;86;21392;-83
2022/07/25 04:52:26;;;;;;;3.02;1.65;;;;;;;15.28;67.29;96738.75;1633266;86;20978;-83
2022/07/25 04:54:52;;;;;;;1.80;1.40;;;;;;;15.30;67.40;96740.69;1641700;86;20961;-83
2022/07/25 04:57:18;;;;;;;1.82;1.40;;;;;;;15.33;67.57;96746.52;1630446;86;21438;-83
2022/07/25 04:59:43;;;;;;;2.42;1.50;;;;;;;15.34;67.75;96744.20;1606049;89;21016;-83
2022/07/25 05:02:09;;;;;;;2.00;1.30;;;;;;;15.37;67.89;96748.53;1602992;88;20952;-83
2022/07/25 05:04:37;;;;;;;1.77;1.27;;;;;;;15.40;67.94;96744.69;1601492;88;21131;-84
2022/07/25 05:07:02;;;;;;;4.05;1.60;;;;;;;15.43;67.93;96731.99;1602531;88;21754;-84
2022/07/25 05:09:28;;;;;;;2.55;1.55;;;;;;;15.48;68.07;96738.75;1604712;88;22146;-82
2022/07/25 05:11:54;;;;;;;2.25;1.42;;;;;;;15.53;68.28;96741.56;1602166;88;21021;-82
2022/07/25 05:14:19;;;;;;;1.82;1.60;;;;;;;15.57;68.52;96741.45;1603076;88;21080;-82
2022/07/25 05:16:45;;;;;;;2.62;1.75;;;;;;;15.62;68.76;96744.81;1578288;89;21051;-83
2022/07/25 05:19:11;;;;;;;2.05;1.50;;;;;;;15.65;69.06;96747.02;1575630;89;21472;-83
2022/07/25 05:21:37;;;;;;;1.82;1.20;;;;;;;15.67;69.17;96748.92;1615550;87;21015;-82
2022/07/25 05:24:04;;;;;;;2.05;1.27;;;;;;;15.72;69.21;96742.56;1612592;88;20951;-83
2022/07/25 05:26:29;;;;;;;1.57;1.30;;;;;;;15.77;69.32;96739.31;1615315;88;21421;-83
2022/07/25 05:28:55;;;;;;;3.40;1.35;;;;;;;15.82;69.73;96736.40;1602886;88;21000;-83
2022/07/25 05:31:21;;;;;;;1.62;1.42;;;;;;;15.89;69.71;96735.06;1607554;88;21008;-83
2022/07/25 05:33:46;;;;;;;2.60;1.55;;;;;;;15.94;69.61;96730.50;1601555;88;21003;-83
2022/07/25 05:36:13;;;;;;;3.62;1.50;;;;;;;15.98;69.59;96727.28;1600513;88;20949;-83
2022/07/25 05:38:38;;;;;;;1.70;1.30;;;;;;;16.02;69.80;96721.11;1607184;88;21135;-84
2022/07/25 05:41:06;;;;;;;2.08;1.22;;;;;;;16.06;70.10;96725.73;1599356;88;21196;-83
2022/07/25 05:43:32;;;;;;;2.00;1.10;;;;;;;16.09;70.33;96720.06;1608165;88;21051;-83
2022/07/25 05:46:02;;;;;;;1.40;1.30;;;;;;;16.14;70.11;96715.53;1601712;88;21083;-83
2022/07/25 05:48:28;;;;;;;1.80;1.60;;;;;;;16.21;70.01;96722.34;1605780;88;21035;-83
2022/07/25 05:50:53;;;;;;;1.60;1.32;;;;;;;16.27;70.36;96717.27;1604977;88;20959;-83
2022/07/25 05:53:19;;;;;;;2.02;1.20;;;;;;;16.33;69.89;96719.06;1576770;88;21303;-83
2022/07/25 05:55:45;;;;;;;2.85;1.40;;;;;;;16.39;69.88;96715.59;1598598;88;21401;-83
2022/07/25 05:58:10;;;;;;;1.82;1.62;;;;;;;16.46;69.83;96726.88;1621865;86;20963;-83
2022/07/25 06:00:36;;;;;;;1.85;1.30;;;;;;;16.52;70.01;96728.64;1628517;86;20951;-83
2022/07/25 06:03:02;;;;;;;1.52;1.17;;;;;;;16.60;70.33;96722.36;1602243;88;21080;-83
2022/07/25 06:05:29;;;;;;;3.58;1.47;;;;;;;16.68;70.24;96717.69;1608598;88;21003;-84
2022/07/25 06:07:55;;;;;;;1.77;1.30;;;;;;;16.73;70.37;96707.86;1605758;88;21028;-85
2022/07/25 06:10:22;;;;;;;2.10;1.40;;;;;;;16.91;70.98;96717.63;1612373;88;21011;-85
2022/07/25 06:12:47;;;;;;;1.87;1.32;;;;;;;17.00;71.40;96715.84;1636712;86;21034;-84
2022/07/25 06:15:13;;;;;;;5.03;3.35;;;;;;;17.08;71.13;96714.77;1638068;86;20983;-84
2022/07/25 06:17:39;;;;;;;7.42;3.58;;;;;;;17.15;70.71;96716.84;1639106;86;21006;-84
2022/07/25 06:20:05;;;;;;;2.70;1.75;;;;;;;17.25;70.70;96713.74;1635683;86;21169;-82
2022/07/25 06:22:32;;;;;;;4.30;2.60;;;;;;;17.37;70.42;96721.19;1638593;86;21360;-85
2022/07/25 06:24:58;;;;;;;5.90;3.45;;;;;;;17.48;70.07;96709.98;1638657;86;21436;-84
2022/07/25 06:27:24;;;;;;;5.97;2.85;;;;;;;17.59;69.88;96706.64;1607058;86;21002;-84
2022/07/25 06:29:50;;;;;;;2.83;2.00;;;;;;;17.71;69.93;96706.73;1626858;86;20970;-84
2022/07/25 06:32:17;;;;;;;2.30;1.57;;;;;;;17.79;69.91;96709.09;1643420;86;21040;-85
2022/07/25 06:34:46;;;;;;;2.65;1.72;;;;;;;17.87;70.15;96702.72;1641011;86;21053;-82
2022/07/25 06:37:11;;;;;;;2.92;2.02;;;;;;;17.93;70.17;96701.35;1640948;86;22233;-82
2022/07/25 06:39:37;;;;;;;4.55;2.25;;;;;;;17.98;70.50;96696.73;1641761;86;20999;-83
2022/07/25 06:42:04;;;;;;;4.37;2.30;;;;;;;18.04;70.20;96698.48;1639348;86;21028;-83
2022/07/25 06:44:34;;;;;;;4.17;2.77;;;;;;;18.12;70.56;96696.88;1631846;86;21379;-83
2022/07/25 06:47:01;;;;;;;4.55;2.67;;;;;;;18.20;70.49;96695.75;1632331;86;21011;-84
2022/07/25 06:49:27;;;;;;;4.58;2.40;;;;;;;18.30;70.35;96699.47;1638413;86;20987;-82
2022/07/25 06:51:53;;;;;;;3.98;2.02;;;;;;;18.40;70.63;96697.63;1635093;86;21367;-82
2022/07/25 06:54:18;;;;;;;3.50;2.60;;;;;;;18.50;69.69;96693.94;1644182;86;21106;-84
2022/07/25 06:56:44;;;;;;;4.62;2.17;;;;;;;18.64;69.43;96695.09;1643816;86;21054;-84
2022/07/25 06:59:10;;;;;;;4.90;2.80;;;;;;;18.79;68.30;96695.48;1620030;86;21026;-82
2022/07/25 07:01:37;;;;;;;4.78;2.65;;;;;;;18.93;69.33;96680.29;1642142;86;21130;-82
2022/07/25 07:04:04;;;;;;;4.95;2.45;;;;;;;19.02;69.23;96678.39;1638786;86;21052;-84
2022/07/25 07:06:30;;;;;;;3.42;2.15;;;;;;;19.11;69.05;96678.36;1641426;86;21032;-86
2022/07/25 07:08:59;;;;;;;4.33;2.17;;;;;;;19.25;66.66;96678.95;1643299;86;21441;-85
2022/07/25 07:11:24;;;;;;;4.65;2.22;;;;;;;19.39;66.62;96675.05;1641773;86;21076;-84
2022/07/25 07:13:50;;;;;;;2.85;2.42;;;;;;;19.53;68.00;96678.77;1640907;86;21594;-83
2022/07/25 07:16:16;;;;;;;2.70;2.08;;;;;;;19.58;68.65;96682.34;1644547;86;21030;-82
2022/07/25 07:18:42;;;;;;;6.58;2.87;;;;;;;19.65;67.33;96677.73;1643525;86;21073;-82
2022/07/25 07:21:09;;;;;;;5.40;2.98;;;;;;;19.73;67.03;96670.80;1645895;86;21468;-83
2022/07/25 07:23:35;;;;;;;5.45;3.02;;;;;;;19.85;66.36;96676.06;1644934;86;21046;-86
2022/07/25 07:26:00;;;;;;;4.35;2.67;;;;;;;19.95;66.52;96674.12;1644098;86;20940;-85
2022/07/25 07:28:26;;;;;;;4.97;2.62;;;;;;;20.02;65.48;96680.09;1638660;86;21047;-84
2022/07/25 07:30:52;;;;;;;5.17;2.70;;;;;;;20.09;65.19;96677.58;1610520;87;21039;-85
2022/07/25 07:33:18;;;;;;;3.30;1.90;;;;;;;20.17;64.50;96675.59;1609104;87;21082;-83
2022/07/25 07:35:44;;;;;;;2.62;2.10;;;;;;;20.25;62.97;96672.59;1643441;86;21049;-85
2022/07/25 07:38:10;;;;;;;3.45;2.58;;;;;;;20.33;63.47;96672.20;1641641;86;21096;-85
2022/07/25 07:40:36;;;;;;;3.12;2.12;;;;;;;20.38;60.71;96671.80;1640737;86;21006;-84
2022/07/25 07:43:02;;;;;;;4.35;2.33;;;;;;;20.44;63.35;96667.95;1643583;86;20993;-84
2022/07/25 07:45:29;;;;;;;2.85;2.00;;;;;;;20.48;64.30;96667.23;1641382;86;22366;-84
2022/07/25 07:47:55;;;;;;;4.55;1.92;;;;;;;20.52;62.22;96672.34;1639997;86;20978;-82
2022/07/25 07:50:23;;;;;;;2.83;1.65;;;;;;;20.58;60.43;96664.78;1640492;86;21177;-84
2022/07/25 07:52:49;;;;;;;4.95;2.22;;;;;;;20.65;61.52;96665.42;1638828;86;21064;-83
2022/07/25 07:57:59;;;;;;;2.77;2.37;;;;;;;20.72;63.07;96656.05;1611375;87;21620;-83
2022/07/25 08:00:27;;;;;;;3.55;2.35;;;;;;;20.75;60.84;96654.24;1602048;88;21071;-85
2022/07/25 08:02:53;;;;;;;3.05;2.20;;;;;;;20.89;60.45;96654.73;1600828;88;21015;-84
2022/07/25 08:05:26;;;;;;;2.45;2.00;;;;;;;20.96;61.75;96657.48;1603628;88;21087;-83
2022/07/25 08:07:52;;;;;;;2.47;2.00;;;;;;;21.03;59.30;96653.38;1610083;87;21040;-84
2022/07/25 08:10:23;;;;;;;3.92;1.85;;;;;;;21.17;60.47;96654.65;1603062;88;21403;-83
2022/07/25 08:12:48;;;;;;;1.95;1.67;;;;;;;21.25;59.62;96658.73;1610832;87;21029;-84
2022/07/25 08:15:16;;;;;;;3.70;1.90;;;;;;;21.32;59.26;96653.30;1612575;87;21441;-84
2022/07/25 08:17:43;;;;;;;2.90;2.12;;;;;;;21.40;58.34;96649.70;1607414;87;21014;-82
2022/07/25 08:20:10;;;;;;;3.55;1.90;;;;;;;21.52;57.81;96649.09;1588651;88;21067;-82
2022/07/25 08:22:45;;;;;;;3.05;1.50;;;;;;;21.62;58.89;96644.95;1588716;89;21087;-83
2022/07/25 08:25:16;;;;;;;4.05;1.70;;;;;;;21.72;57.52;96641.93;1595717;88;20979;-84
2022/07/25 08:27:43;;;;;;;4.03;1.98;;;;;;;21.81;57.67;96643.64;1588228;88;21105;-85
2022/07/25 08:30:12;;;;;;;4.03;1.90;;;;;;;21.93;57.92;96645.61;1643262;86;21047;-84
2022/07/25 08:32:55;;;;;;;4.00;1.87;;;;;;;22.11;56.76;96646.64;1640613;86;21361;-84
2022/07/25 08:35:21;;;;;;;2.33;1.75;;;;;;;22.30;56.26;96645.00;1634940;86;21008;-85
2022/07/25 08:37:47;;;;;;;4.97;2.00;;;;;;;22.46;54.77;96649.40;1648410;86;21019;-84
2022/07/25 08:40:15;;;;;;;3.60;2.10;;;;;;;22.67;54.97;96643.76;1644435;86;21361;-84
2022/07/25 08:42:40;;;;;;;5.55;2.08;;;;;;;22.87;54.52;96643.95;1614742;87;21072;-83
2022/07/25 08:45:08;;;;;;;3.20;2.00;;;;;;;23.08;55.22;96640.12;1611361;87;21498;-84
2022/07/25 08:47:35;;;;;;;3.27;2.00;;;;;;;23.27;52.73;96636.83;1609651;87;21036;-84
2022/07/25 08:50:07;;;;;;;2.45;1.70;;;;;;;23.50;52.44;96640.13;1614963;87;21091;-86
2022/07/25 08:52:36;;;;;;;3.05;2.02;;;;;;;23.62;51.49;96636.25;1613055;87;21038;-85
2022/07/25 08:55:05;;;;;;;3.75;2.00;;;;;;;23.77;52.15;96629.42;1613849;87;20960;-83
2022/07/25 08:57:31;;;;;;;3.45;1.82;;;;;;;23.92;52.76;96627.62;1602211;88;21133;-80
2022/07/25 08:59:58;;;;;;;2.05;1.57;;;;;;;24.05;52.42;96626.84;1575183;89;22018;-84
2022/07/25 09:02:26;;;;;;;3.42;2.17;;;;;;;24.13;48.63;96626.34;1587682;89;21024;-85
2022/07/25 09:04:53;;;;;;;2.72;1.60;;;;;;;24.24;50.87;96623.47;1625819;87;21387;-83
2022/07/25 09:07:30;;;;;;;3.77;1.90;;;;;;;24.31;50.50;96621.91;1622569;87;21049;-83
2022/07/25 09:09:56;;;;;;;2.35;2.05;;;;;;;24.40;50.71;96618.98;1627755;87;20998;-83
2022/07/25 09:12:27;;;;;;;1.82;1.47;;;;;;;24.43;50.50;96618.48;1624297;87;21047;-84
2022/07/25 09:14:53;;;;;;;3.92;2.00;;;;;;;24.44;50.84;96614.75;1598640;87;20970;-84
2022/07/25 09:17:19;;;;;;;2.45;1.62;;;;;;;24.50;50.55;96613.69;1616781;87;21059;-84
2022/07/25 09:19:53;;;;;;;2.02;1.67;;;;;;;24.59;50.55;96611.32;1625435;87;21113;-85
2022/07/25 09:22:20;;;;;;;3.05;1.57;;;;;;;24.71;49.26;96609.70;1625502;87;20981;-83
2022/07/25 09:24:46;;;;;;;2.17;1.70;;;;;;;24.87;49.14;96606.52;1623831;87;21010;-83
2022/07/25 09:27:14;;;;;;;2.58;1.90;;;;;;;24.98;47.98;96602.80;1622177;87;21388;-83
2022/07/25 09:29:42;;;;;;;2.62;1.77;;;;;;;25.05;48.28;96605.99;1628577;87;21050;-85
2022/07/25 09:32:21;;;;;;;2.35;1.57;;;;;;;25.12;46.83;96604.66;1627339;87;20990;-83
2022/07/25 09:34:48;;;;;;;3.27;2.00;;;;;;;25.20;47.45;96602.52;1618597;87;21020;-84
2022/07/25 09:37:17;;;;;;;1.92;1.52;;;;;;;25.24;47.16;96596.41;1622916;87;21057;-84
2022/07/25 09:39:48;;;;;;;4.85;1.90;;;;;;;25.32;48.46;96597.70;1626219;87;21022;-84
2022/07/25 09:42:30;;;;;;;2.25;1.82;;;;;;;25.37;47.44;96595.81;1623929;87;20998;-85
2022/07/25 09:45:12;;;;;;;3.15;2.08;;;;;;;25.45;47.08;96598.47;1629476;87;21019;-83
2022/07/25 09:47:57;;;;;;;2.08;1.50;;;;;;;25.52;49.12;96596.30;1628684;87;21062;-83
2022/07/25 09:50:24;;;;;;;2.83;1.67;;;;;;;25.55;46.13;96596.33;1616849;87;21238;-85
2022/07/25 09:52:55;;;;;;;2.90;1.87;;;;;;;25.55;46.13;96596.33;1626175;87;21103;-85
2022/07/25 09:55:23;;;;;;;1.90;1.40;;;;;;;25.46;46.55;96582.77;1618287;87;21058;-83
2022/07/25 09:57:51;;;;;;;1.82;1.55;;;;;;;25.48;47.68;96591.81;1586860;89;21359;-85
2022/07/25 10:00:26;;;;;;;2.60;1.37;;;;;;;25.38;44.39;96585.47;1582055;89;21020;-84
2022/07/25 10:03:12;;;;;;;2.62;1.50;;;;;;;25.42;44.48;96583.85;1604451;88;21028;-84
2022/07/25 10:05:59;;;;;;;2.00;1.47;;;;;;;25.43;43.48;96580.13;1585220;89;21027;-84
2022/07/25 10:08:24;;;;;;;2.75;1.50;;;;;;;25.46;43.06;96577.45;1602411;88;21095;-84
2022/07/25 10:10:50;;;;;;;3.12;1.45;;;;;;;25.46;45.11;96577.45;1608091;88;21075;-84
2022/07/25 10:13:28;;;;;;;3.55;1.50;;;;;;;25.48;43.90;96571.86;1585900;89;21015;-84
2022/07/25 10:15:54;;;;;;;2.62;1.40;;;;;;;25.50;46.79;96581.16;1589228;89;21007;-84
2022/07/25 10:18:24;;;;;;;1.72;1.50;;;;;;;25.52;44.84;96571.56;1586438;89;21355;-84
2022/07/25 10:20:56;;;;;;;2.02;1.17;;;;;;;25.52;47.24;96572.36;1586940;89;21167;-84
2022/07/25 10:23:26;;;;;;;2.90;1.30;;;;;;;25.56;44.41;96576.09;1633194;86;21430;-83
2022/07/25 10:26:14;;;;;;;1.47;1.20;;;;;;;25.70;45.09;96561.67;1638419;86;21115;-83
2022/07/25 10:28:49;;;;;;;1.65;1.42;;;;;;;25.70;45.09;96561.67;1640595;86;21370;-82
2022/07/25 10:31:38;;;;;;;2.52;1.55;;;;;;;25.85;44.27;96568.25;1633587;86;20998;-82
2022/07/25 10:34:09;;;;;;;1.90;1.32;;;;;;;25.93;45.60;96564.23;1634409;86;21291;-83
2022/07/25 10:36:47;;;;;;;1.80;1.37;;;;;;;25.97;45.49;96559.41;1632784;86;20981;-83
2022/07/25 10:39:14;;;;;;;1.30;1.07;;;;;;;26.09;41.16;96555.63;1633335;86;21040;-83
2022/07/25 10:41:52;;;;;;;1.70;1.17;;;;;;;26.09;41.16;96555.63;1605405;88;21081;-83
2022/07/25 10:44:18;;;;;;;3.42;1.40;;;;;;;26.16;44.29;96560.09;1575360;89;21086;-84
2022/07/25 10:46:43;;;;;;;1.45;1.17;;;;;;;26.14;42.99;96550.25;1569689;89;21370;-84
2022/07/25 10:49:21;;;;;;;2.30;1.47;;;;;;;26.14;42.24;96552.38;1638275;86;20979;-83
2022/07/25 10:51:59;;;;;;;1.75;1.07;;;;;;;26.20;43.39;96547.30;1634987;86;21110;-84
2022/07/25 10:54:24;;;;;;;1.77;1.27;;;;;;;26.31;42.73;96548.80;1571805;89;21067;-84
2022/07/25 10:56:58;;;;;;;2.08;1.30;;;;;;;26.42;41.38;96544.77;1576648;89;20988;-84
2022/07/25 10:59:35;;;;;;;1.92;1.20;;;;;;;26.51;40.98;96537.75;1585988;89;21491;-84
2022/07/25 11:02:08;;;;;;;1.65;1.20;;;;;;;26.58;42.61;96537.70;1607497;88;21088;-83
2022/07/25 11:04:34;;;;;;;1.62;1.17;;;;;;;26.63;42.43;96534.19;1610259;87;21054;-85
2022/07/25 11:07:11;;;;;;;1.67;1.30;;;;;;;26.61;42.33;96527.02;1606891;88;21068;-83
2022/07/25 11:09:38;;;;;;;2.22;1.00;;;;;;;26.65;41.82;96527.23;1608213;88;21019;-84
2022/07/25 11:12:04;;;;;;;2.22;0.85;;;;;;;26.72;37.56;96526.39;1610018;88;21469;-84
2022/07/25 11:14:40;;;;;;;1.40;1.02;;;;;;;26.71;39.74;96525.59;1607089;88;21032;-84
2022/07/25 11:17:17;;;;;;;2.47;1.40;;;;;;;26.75;38.79;96528.48;1603562;88;21070;-83
2022/07/25 11:19:45;;;;;;;2.02;1.40;;;;;;;26.77;35.81;96523.13;1573656;89;21509;-83
2022/07/25 11:22:12;;;;;;;1.52;1.20;;;;;;;26.71;38.19;96512.81;1605851;88;21007;-83
2022/07/25 11:24:41;;;;;;;2.37;1.30;;;;;;;26.83;40.15;96516.66;1580963;89;21414;-85
2022/07/25 11:27:14;;;;;;;2.02;1.10;;;;;;;26.95;39.16;96510.16;1611651;88;21063;-83
2022/07/25 11:29:41;;;;;;;1.30;1.00;;;;;;;27.03;39.80;96509.05;1565534;90;21076;-84
2022/07/25 11:32:10;;;;;;;1.20;1.10;;;;;;;27.16;40.55;96502.21;1606142;88;21127;-84
2022/07/25 11:34:43;;;;;;;2.60;1.27;;;;;;;27.28;40.43;96501.28;1576442;90;21063;-83
2022/07/25 11:37:10;;;;;;;1.17;1.00;;;;;;;27.39;38.66;96504.08;1577559;89;21075;-82